createdAt,value
2023-04-17T00:05:25.511Z,16.6
2023-04-17T00:21:46.521Z,15.8
2023-04-17T00:38:06.864Z,16.7
2023-04-17T00:54:27.350Z,16.2
2023-04-17T01:10:47.503Z,16.8
2023-04-17T01:27:07.754Z,16.4
2023-04-17T01:43:28.577Z,15.7
2023-04-17T01:59:48.638Z,15.4
2023-04-17T02:16:11.030Z,16
2023-04-17T02:32:31.717Z,16.4
2023-04-17T02:48:51.582Z,16.6
2023-04-17T03:05:12.272Z,15.8
2023-04-17T03:21:32.484Z,15.9
2023-04-17T03:40:14.024Z,16.9
2023-04-17T03:56:35.375Z,15.4
2023-04-17T04:12:55.089Z,16
2023-04-17T04:29:15.890Z,16.3
2023-04-17T04:45:37.873Z,16
2023-04-17T05:01:58.781Z,15.8
2023-04-17T05:18:19.720Z,16.1
2023-04-17T05:34:40.345Z,17
2023-04-17T05:51:00.883Z,17.2
2023-04-17T06:07:21.703Z,15.6
2023-04-17T06:23:42.681Z,17.3
2023-04-17T06:40:03.513Z,16.7
2023-04-17T06:56:24.815Z,17
2023-04-17T07:11:35.352Z,13.4
2023-04-17T07:26:44.958Z,12.8
2023-04-17T07:41:54.655Z,13.3
2023-04-17T07:57:04.801Z,12.3
2023-04-17T08:12:14.927Z,11.6
2023-04-17T08:27:26.353Z,11.4
2023-04-17T08:42:38.004Z,12.7
2023-04-17T08:57:48.323Z,11.9
2023-04-17T09:12:58.275Z,11
2023-04-17T09:28:08.351Z,8.7
2023-04-17T09:43:18.662Z,8.3
2023-04-17T09:58:28.692Z,9.1
2023-04-17T10:13:38.931Z,9.6
2023-04-17T10:28:49.154Z,8.4
2023-04-17T10:43:59.300Z,8.3
2023-04-17T10:59:08.928Z,6.6
2023-04-17T11:14:19.121Z,7.2
2023-04-17T11:29:29.105Z,7.7
2023-04-17T11:44:38.990Z,8.1
2023-04-17T11:59:48.824Z,6.4
2023-04-17T12:15:02.016Z,6.6
2023-04-17T12:30:11.839Z,6.4
2023-04-17T12:45:22.933Z,6.7
2023-04-17T13:00:32.290Z,6.6
2023-04-17T13:15:43.028Z,6.4
2023-04-17T13:30:53.221Z,6.4
2023-04-17T13:46:04.269Z,5.7
2023-04-17T14:01:16.552Z,6.8
2023-04-17T14:16:26.849Z,6.6
2023-04-17T14:31:36.922Z,6.5
2023-04-17T14:46:48.411Z,7.4
2023-04-17T15:02:01.873Z,6.7
2023-04-17T15:17:12.857Z,6.1
2023-04-17T15:32:24.631Z,5.5
2023-04-17T15:47:36.378Z,6.1
2023-04-17T16:02:47.952Z,6.5
2023-04-17T16:18:01.866Z,5.6
2023-04-17T16:33:12.129Z,5.3
2023-04-17T16:48:18.456Z,6.3
2023-04-17T17:03:26.922Z,6.6
2023-04-17T17:18:36.096Z,7.6
2023-04-17T17:33:45.368Z,8
2023-04-17T17:48:54.695Z,7.7
2023-04-17T18:04:04.750Z,6
2023-04-17T18:19:14.749Z,6.9
2023-04-17T18:34:24.147Z,6
2023-04-17T18:49:33.422Z,5
2023-04-17T19:04:42.675Z,4.9
2023-04-17T19:19:51.690Z,4.5
2023-04-17T19:35:02.465Z,4.8
2023-04-17T19:50:11.952Z,4.1
2023-04-17T20:05:21.354Z,4.9
2023-04-17T20:20:30.495Z,5.2
2023-04-17T20:35:40.289Z,4
2023-04-17T20:50:50.209Z,4.2
2023-04-17T21:06:02.169Z,4.5
2023-04-17T21:21:11.576Z,4.2
2023-04-17T21:36:21.081Z,3.8
2023-04-17T21:51:30.678Z,4.2
2023-04-17T22:06:40.727Z,4.7
2023-04-17T22:21:50.238Z,4.6
2023-04-17T22:37:00.113Z,4.6
2023-04-17T22:52:09.500Z,4.9
2023-04-17T23:07:18.716Z,5.7
2023-04-17T23:22:27.890Z,6.1
2023-04-17T23:37:38.096Z,5.2
2023-04-17T23:52:48.646Z,6.2
